Warning: Javascript must be enabled to use all the features on this page!


Page Loading - Please Wait...

Click to hideNews Bulletins

Peak Streamflow for the Nation

USGS 03106500 Slippery Rock Creek at Wurtemburg, PA

Lawrence County, Pennsylvania
Hydrologic Unit Code 05030105
Latitude  40°53'02", Longitude  80°14'02" NAD27
Drainage area 398  square miles
Gage datum 832.06 feet above NGVD29
Output formats
Table
Graph
Tab-separated file
peakfq (watstore) format
Reselect output format
Water
Year
Date Gage
Height
(feet)
Stream-
flow
(cfs)
1912 1912-08-26   10,800
1913 1913-03-26   17,800
1914 1914-04-26 6.803 6,240
1915 1915-02-02 8.503 10,700
1916 1916-03-27 6.903 7,050
1917 1917-01-05 6.503 5,980
1918 1918-02-20 8.303 10,100
1919 1919-05-11 6.203 4,990
1920 1920-03-13 8.903,5 11,000
1921 1921-06-23 5.573 3,760
1922 1921-11-02 5.773 4,150
1923 1923-05-13 8.403,5 7,5502
1924 1924-05-09 8.303,5 7,320
1925 1925-02-10 8.103,5 6,860
1926 1926-09-05 9.003,5 9,000
1927 1927-01-20 8.623 8,030
1928 1927-12-14 11.803,5 18,200
1929 1929-02-27 9.913 11,500
1930 1930-01-13 8.003,5 6,630
1931 1931-06-08 5.853,5 2,930
1932 1932-01-18 7.183 4,880
1934 1934-08-09 10.383 13,000
1935 1935-01-22 7.643 5,730
1936 1936-03-25 9.043 9,000
1937 1937-01-25 12.053 19,000
1938 1937-12-18 8.803 8,510
1939 1939-03-12 8.803,5 8,510
1940 1940-04-21 9.503,5 8,450
1941 1941-07-31 5.222 3,410
1942 1942-03-09 6.98 7,770
1943 1942-12-30 8.59 11,700
1944 1944-04-12 4.622 3,390
1945 1945-02-23 7.462 8,970
1946 1946-05-28 8.51 11,500
1947 1947-06-08 4.662 3,460
1948 1948-04-14 6.52 6,500
1949 1948-12-16 6.43 6,270
1950 1950-02-14 7.12 7,450
1951 1950-12-04 7.22 7,700
1952 1952-01-27 8.53 11,000
1953 1953-05-23 5.68 4,480
1954 1954-04-17 6.84 6,730
1955 1954-10-16 10.23 13,500
1956 1956-06-22 9.06 12,000
1957 1957-04-04 7.22 7,380
1958 1958-07-16 6.78 6,560
1959 1959-01-22 10.45 14,000
1960 1960-03-30 7.84 8,500
1961 1961-02-19 5.61 4,290
1962 1962-03-12 6.03 4,990
1963 1963-03-18 5.652 4,290
1964 1964-03-10 9.56 12,200
1965 1965-01-25 6.76 6,430
1966 1966-02-13 6.99 6,880
1967 1967-05-12 5.00 3,400
1968 1968-01-30 7.34 7,580
1969 1968-12-29 7.27 7,440
1970 1970-03-05 6.34 5,640
1971 1971-02-22 6.67 6,260
1972 1972-06-24 8.09 9,090
1973 1973-03-15 6.15 5,280
1974 1974-06-30 7.63 8,160
1975 1975-02-25 7.07 7,040
1976 1976-02-17 6.32 5,600
1977 1977-04-03 6.89 6,680
1978 1977-12-15 7.24 7,380
1979 1979-02-26 7.78 8,460
1980 1980-03-31 6.50 5,940
1981 1981-02-20   9,6002
1982 1982-02-01 7.38 7,660
1983 1983-05-02 5.56 4,230
1984 1984-08-03 6.99 6,880
1985 1985-03-29 7.462 7,820
1986 1986-06-13 6.84 6,590
1987 1986-12-03 5.78 4,600
1988 1988-02-02 4.85 3,200
1989 1989-06-21 7.30 7,460
1990 1990-02-16 6.92 6,740
1991 1990-12-31 6.712 6,320
1992 1992-09-22 5.13 3,570
1993 1993-03-24 6.26 5,460
1994 1994-04-13 7.60 8,060
1995 1995-06-12 5.62 4,320
1996 1996-01-19 8.00 8,900
1997 1996-12-12 5.47 4,100
1998 1998-01-09 7.36 7,610
1999 1999-01-24 6.40 5,550
2000 2000-04-04 6.03 4,980
2001 2001-04-10 4.722 3,130
2002 2002-04-15 5.85 5,030
2003 2003-09-02 7.03 6,740
2004 2004-09-09 9.48 11,800
2005 2005-01-06 7.41 7,310
2006 2006-03-14 5.07 3,940
2007 2007-03-15 6.34 5,720
2008 2008-02-06 6.99 6,680
2009 2009-02-12 5.86 5,040
2010 2010-01-25 6.18 5,490
2011 2011-03-01 7.71 7,820
2012 2012-01-27 5.80 4,960
2013 2013-07-11 5.48 4,170
2014 2013-12-22 7.20 6,990
2015 2015-06-16 8.04 8,390
2016 2016-04-12 6.14 4,760
2017 2017-01-12 7.57 7,390
2018 2018-02-16 7.34 6,770
2019 2019-06-18 7.68 7,470
2020 2020-03-20 7.24 6,580
?
  Peak Gage-Height Qualification Codes.
?
  Peak Streamflow Qualification Codes.